Terminal Aerodrome Forecast
Issued by NWS

Home | Current Version | Previous Version | Text Only | Print | Product List | Glossary On
Versions: 1 2 3 4 5 6 7 8 9 10 11 12 13 14 15 16 17 18 19 20 21 22 23
000
FTUS45 KRIW 301700
TAFPNA
TAF
KPNA 301720Z 3018/3118 13011KT P6SM VCSH SCT110
     FM301900 24020G30KT P6SM VCTS SCT060CB BKN080
     FM310200 VRB11KT P6SM VCSH SCT050
     FM310600 VRB11KT P6SM VCSH BKN050
     FM311000 02008KT P6SM VCSH SCT050 BKN140
     FM311600 27011KT P6SM SCT040 SCT140
      AMD LTD TO CLD VIS AND WIND=

USA.gov is the U.S. government's official web portal to all federal, state and local government web resources and services.